Main page
METAR-TAF:

METAR-TAF

Airports :

RAF Valley

Valley, Wales

latitude: 53-15N, longitude: 004-32W, elevation: 1 m

Current weather observation

The report was made 1 hour and 9 minutes ago, at 21:50 UTC
Wind 12 kt from the East/Northeast
Temperature 7°C
Humidity 81%
Pressure 1021 hPa
Visibility 10 km or more

METAR: EGOV 192150Z AUTO 06012KT 9999 FEW019/// BKN025/// 07/04 Q1021 RERA

Time: 22:59 (22:59 UTC)

Forecast

The report was made 9 hours and 17 minutes ago, at 13:42 UTC
Forecast valid from 19 at 15 UTC to 19 at 20 UTC
Wind 13 kt from the East/Northeast
Visibility 10 km or more
Few clouds at a height of 2200 ft
Scattered clouds at a height of 4000 ft
Probability 30% :
Temporary
from 19 at 15 UTC to 19 at 20 UTC
Wind 15 kt from the East with gusts up to 25 kt
Scattered clouds at a height of 2000 ft

TAF: EGOV 191342Z 1915/1920 07013KT 9999 FEW022 SCT040 PROB30 TEMPO 1915/1920 09015G25KT SCT020

Weather observations and forecasts of more than 4000 airports (METAR and TAF reports).

The available stations are represented by yellow and red dots on the map.

Hover mouse over dot to see the name of the station.

Then click to see weather observations and forecasts.

To change the map : click on the green buttons with a black cross to zoom in, on the green button with a dash to zoom out, or on the green arrows for adjacent maps.


METAR-TAF: